Архив погоды в Бузулуке

Метеограмма Бузулук
Среда, 25 Июля
Время местн. Темп Ветер Видим Явления Облачность нижн/средн/верх Атм. давл. Влжн Точка росы ВНГО R Сост. почвы Tg s
Напр Скр Прв ур.ст ур.м изм
14:00 +30.9° Ю-В 3 - 10 км - преимущественно облачно 759 766 -0.2 29% +10.7° 1 км - - - -
11:00 +27.6° В 3 - 10 км - преимущественно облачно 759 766 +0.1 47% +15.3° более 2.5 км - - - -
08:00 +20° штиль 0 - 10 км - преимущественно облачно 759 766 +0.5 79% +16.2° более 2.5 км 0 Сухая (без трещин) - -
05:00 +19.5° В 2 - 10 км - преимущественно облачно 759 766 +0.5 62% +12.1° более 2.5 км - - - -
02:00 +20.5° В 3 - 10 км - облачно с прояснениями 758 765 +0.2 59% +12.1° более 2.5 км - - - -
Вторник, 24 Июля
Время местн. Темп Ветер Видим Явления Облачность нижн/средн/верх Атм. давл. Влжн Точка росы ВНГО R Сост. почвы Tg s
Напр Скр Прв ур.ст ур.м изм
23:00 +20.3° В,С-В 2 - 10 км - облачно с прояснениями 758 765 +0.7 57% +11.5° более 2.5 км - - - -
20:00 +27.7° В,Ю-В 2 - 10 км - преимущественно облачно 757 764 -0.5 30% +8.5° более 2.5 км 0 - - -
17:00 +29.2° Ю-В 2 - 10 км - преимущественно облачно 757 764 -0.6 25% +7.4° более 2.5 км - - - -
14:00 +28.1° Ю-В 3 - 10 км - облачно с прояснениями 758 765 -0.2 26% +7° более 2.5 км - - - -
11:00 +25.3° В,Ю-В 3 - 10 км - облачно с прояснениями 758 765 +0.4 36% +9.1° более 2.5 км - - - -
08:00 +18.9° В 3 - 10 км - переменная облачность 758 765 +0.5 56% +9.9° более 2.5 км 0 Сухая (без трещин) - -
05:00 +14.2° В,Ю-В 1 - 10 км - переменная облачность 757 764 +0.8 79% +10.7° более 2.5 км - - - -
02:00 +17.8° В 4 - 10 км - ясно 756 763 +0.7 57% +9.1° более 2.5 км - - - -
Понедельник, 23 Июля
Время местн. Темп Ветер Видим Явления Облачность нижн/средн/верх Атм. давл. Влжн Точка росы ВНГО R Сост. почвы Tg s
Напр Скр Прв ур.ст ур.м изм
23:00 +18.6° В 3 - 10 км - переменная облачность 756 763 +0.7 50% +8.1° более 2.5 км - - - -
20:00 +24° В 4 - 10 км - облачно с прояснениями 755 762 0 32% +6.1° более 2.5 км 0 - - -
17:00 +25.6° В 5 - 10 км - переменная облачность 755 762 -0.8 28% +5.7° более 2.5 км - - - -
14:00 +23.7° В 6 - 10 км - облачно с прояснениями 756 763 -0.2 31% +5.4° более 2.5 км - - - -
11:00 +20.9° В,Ю-В 4 - 10 км - облачно с прояснениями 756 763 +0.2 39% +6.3° - - - - -
08:00 +17.5° В 5 - 10 км - переменная облачность 756 763 +1 48% +6.3° - 0 Влажная (без луж) - -
05:00 +16.6° В 3 - 10 км - преимущественно облачно 755 762 +1 53% +7° 600 м - - - -
02:00 +17.4° В 4 - 10 км - облачно 754 761 +0.4 63% +10.2° 600 м - - - -
Воскресенье, 22 Июля
Время местн. Темп Ветер Видим Явления Облачность нижн/средн/верх Атм. давл. Влжн Точка росы ВНГО R Сост. почвы Tg s
Напр Скр Прв ур.ст ур.м изм
23:00 +20° В 4 - 10 км - облачно 754 761 +0.7 49% +8.9° 600 м - - - -
20:00 +21.1° Ю-В 2 - 10 км - преимущественно облачно 753 760 +0.6 54% +11.5° 1 км 0 - - -
17:00 +23.5° В 4 - 10 км - преимущественно облачно 753 760 -0.2 46% +11.2° 1 км - - - -
14:00 +21° В 6 - 10 км - преимущественно облачно 753 760 +0.8 57% +12.2° - - - - -
11:00 +21.2° В 6 11 10 км - преимущественно облачно 752 759 +0.3 56% +12.2° - - - - -